Terminal Aerodrome Forecast
Issued by NWS

Home | Current Version | Previous Version | Text Only | Print | Product List | Glossary On
Versions: 1 2 3 4 5 6 7 8 9 10 11 12 13 14 15 16
000
FTUS43 KMQT 241340 AAA
TAFSAW
TAF AMD
KSAW 241340Z 2414/2512 23003KT P6SM SCT020
      TEMPO 2414/2417 BKN025
     FM242200 14005KT P6SM SCT025
     FM242300 11006KT P6SM BKN025
     FM250400 11009KT P6SM VCSH OVC025
     FM250500 12010KT 5SM -SN OVC020
     FM250600 12011KT 3SM -SN OVC015
     FM250700 13011G18KT 2SM -SN OVC010
     FM250900 15011KT 1SM -SN OVC003
     FM251100 20010KT P6SM OVC008=

USA.gov is the U.S. government's official web portal to all federal, state and local government web resources and services.